createdAt,value
2022-09-20T00:00:50.369Z,11.48
2022-09-20T00:06:14.838Z,10.18
2022-09-20T00:11:37.050Z,11.85
2022-09-20T00:16:58.868Z,11.98
2022-09-20T00:22:20.729Z,14.23
2022-09-20T00:27:42.788Z,13.02
2022-09-20T00:33:04.890Z,12.32
2022-09-20T00:38:26.702Z,11.00
2022-09-20T00:43:48.478Z,12.95
2022-09-20T00:49:25.544Z,12.35
2022-09-20T00:54:48.123Z,13.02
2022-09-20T01:00:11.864Z,12.40
2022-09-20T01:05:35.737Z,11.80
2022-09-20T01:10:57.564Z,11.35
2022-09-20T01:16:20.946Z,12.15
2022-09-20T01:21:43.240Z,12.40
2022-09-20T01:27:17.128Z,13.02
2022-09-20T01:33:17.457Z,14.05
2022-09-20T01:38:56.178Z,12.88
2022-09-20T01:44:45.637Z,12.73
2022-09-20T01:50:34.214Z,12.73
2022-09-20T01:56:17.454Z,14.70
2022-09-20T02:01:45.218Z,10.75
2022-09-20T02:07:51.458Z,12.43
2022-09-20T02:13:47.643Z,11.15
2022-09-20T02:19:40.536Z,11.45
2022-09-20T02:25:22.575Z,10.63
2022-09-20T02:30:56.779Z,13.95
2022-09-20T02:36:37.053Z,10.93
2022-09-20T02:42:20.637Z,13.23
2022-09-20T02:47:47.351Z,13.43
2022-09-20T02:58:48.550Z,12.82
2022-09-20T03:04:40.058Z,13.88
2022-09-20T03:10:01.776Z,12.73
2022-09-20T03:15:57.311Z,15.77
2022-09-20T03:21:34.720Z,15.53
2022-09-20T03:27:09.619Z,13.18
2022-09-20T03:32:48.802Z,12.43
2022-09-20T03:38:25.501Z,12.18
2022-09-20T03:43:56.421Z,12.38
2022-09-20T03:49:33.559Z,12.15
2022-09-20T03:55:07.405Z,10.90
2022-09-20T04:01:00.146Z,11.05
2022-09-20T04:06:40.765Z,11.45
2022-09-20T04:12:22.471Z,11.57
2022-09-20T04:18:12.135Z,15.18
2022-09-20T04:24:06.607Z,23.58
2022-09-20T04:29:44.425Z,20.48
2022-09-20T04:35:43.802Z,14.70
2022-09-20T04:41:51.132Z,11.55
2022-09-20T04:47:21.882Z,10.73
2022-09-20T04:52:52.671Z,23.15
2022-09-20T04:58:39.709Z,9.90
2022-09-20T05:04:30.604Z,9.13
2022-09-20T05:10:01.871Z,10.25
2022-09-20T05:15:41.809Z,9.30
2022-09-20T05:21:15.349Z,8.90
2022-09-20T05:26:43.108Z,9.10
2022-09-20T05:32:39.882Z,10.30
2022-09-20T05:38:20.266Z,9.77
2022-09-20T05:44:06.387Z,11.15
2022-09-20T05:50:04.238Z,8.75
2022-09-20T05:55:50.769Z,12.30
2022-09-20T06:06:49.560Z,9.80
2022-09-20T06:12:48.787Z,11.95
2022-09-20T06:18:16.292Z,8.27
2022-09-20T06:23:38.116Z,8.07
2022-09-20T06:29:05.482Z,11.75
2022-09-20T06:34:28.632Z,10.07
2022-09-20T06:40:03.006Z,9.02
2022-09-20T06:45:24.880Z,10.02
2022-09-20T06:50:46.707Z,8.95
2022-09-20T06:56:14.391Z,8.63
2022-09-20T07:01:36.715Z,9.85
2022-09-20T07:07:07.339Z,9.35
2022-09-20T07:12:31.004Z,9.15
2022-09-20T07:17:52.846Z,7.95
2022-09-20T07:23:14.918Z,9.65
2022-09-20T07:28:36.716Z,10.43
2022-09-20T07:33:58.658Z,13.73
2022-09-20T07:39:20.446Z,14.70
2022-09-20T07:44:42.256Z,11.10
2022-09-20T07:50:04.784Z,11.18
2022-09-20T07:55:26.592Z,15.32
2022-09-20T08:00:56.685Z,11.95
2022-09-20T08:06:18.737Z,10.57
2022-09-20T08:11:42.057Z,9.02
2022-09-20T08:17:03.844Z,10.95
2022-09-20T08:22:25.656Z,9.30
2022-09-20T08:27:54.005Z,10.07
2022-09-20T08:33:15.792Z,10.18
2022-09-20T08:44:36.562Z,8.15
2022-09-20T08:50:00.857Z,9.07
2022-09-20T08:55:27.928Z,7.15
2022-09-20T09:00:50.179Z,7.45
2022-09-20T09:06:18.405Z,7.55
2022-09-20T09:11:45.742Z,10.80
2022-09-20T09:17:10.458Z,7.10
2022-09-20T09:22:35.252Z,7.25
2022-09-20T09:28:03.154Z,6.82
2022-09-20T09:33:29.084Z,7.13
2022-09-20T09:39:11.430Z,5.97
2022-09-20T09:44:33.350Z,7.85
2022-09-20T09:50:01.886Z,6.90
2022-09-20T09:55:37.826Z,7.53
2022-09-20T10:01:03.041Z,8.02
2022-09-20T10:06:57.972Z,7.05
2022-09-20T10:12:34.677Z,9.32
2022-09-20T10:18:28.843Z,5.78
2022-09-20T10:24:17.968Z,6.50
2022-09-20T10:30:04.859Z,6.65
2022-09-20T10:35:36.771Z,5.85
2022-09-20T10:41:16.307Z,8.00
2022-09-20T10:46:44.081Z,6.03
2022-09-20T10:52:13.532Z,4.60
2022-09-20T10:57:46.736Z,6.40
2022-09-20T11:03:17.761Z,6.13
2022-09-20T11:08:40.842Z,5.30
2022-09-20T11:14:21.363Z,7.65
2022-09-20T11:20:02.199Z,5.90
2022-09-20T11:25:38.509Z,4.22
2022-09-20T11:31:20.288Z,4.38
2022-09-20T11:36:49.151Z,3.45
2022-09-20T11:42:16.772Z,4.57
2022-09-20T11:47:56.022Z,5.43
2022-09-20T11:53:26.836Z,5.75
2022-09-20T11:58:54.486Z,4.65
2022-09-20T12:04:39.003Z,5.60
2022-09-20T12:10:05.327Z,5.88
2022-09-20T12:15:31.455Z,4.30
2022-09-20T12:20:56.353Z,4.53
2022-09-20T12:26:21.173Z,3.95
2022-09-20T12:31:51.170Z,4.10
2022-09-20T12:37:12.920Z,4.75
2022-09-20T12:42:35.444Z,7.43
2022-09-20T12:47:57.398Z,4.57
2022-09-20T12:53:19.444Z,4.05
2022-09-20T12:58:52.390Z,7.85
2022-09-20T13:04:39.182Z,4.65
2022-09-20T13:10:20.906Z,3.60
2022-09-20T13:15:48.933Z,3.90
2022-09-20T13:21:10.836Z,3.05
2022-09-20T13:26:41.122Z,4.50
2022-09-20T13:32:31.535Z,4.30
2022-09-20T13:37:53.260Z,4.57
2022-09-20T13:43:29.549Z,9.98
2022-09-20T13:49:12.464Z,4.15
2022-09-20T13:54:34.228Z,5.00
2022-09-20T13:59:56.790Z,4.40
2022-09-20T14:05:19.997Z,3.30
2022-09-20T14:10:41.810Z,2.03
2022-09-20T14:16:04.044Z,2.35
2022-09-20T14:21:27.932Z,2.45
2022-09-20T14:27:19.288Z,3.67
2022-09-20T14:32:50.675Z,4.60
2022-09-20T14:38:15.134Z,2.60
2022-09-20T14:43:37.082Z,4.20
2022-09-20T14:49:23.848Z,2.72
2022-09-20T14:55:00.044Z,5.75
2022-09-20T15:00:21.892Z,5.40
2022-09-20T15:05:49.288Z,2.75
2022-09-20T15:11:18.639Z,3.50
2022-09-20T15:16:40.537Z,1.23
2022-09-20T15:22:02.455Z,1.13
2022-09-20T15:27:28.222Z,2.50
2022-09-20T15:32:50.296Z,2.13
2022-09-20T15:38:13.309Z,2.10
2022-09-20T15:43:35.090Z,2.55
2022-09-20T15:48:59.814Z,2.75
2022-09-20T15:54:21.582Z,1.92
2022-09-20T15:59:43.518Z,2.38
2022-09-20T16:05:05.568Z,2.10
2022-09-20T16:10:27.342Z,5.28
2022-09-20T16:16:00.124Z,2.75
2022-09-20T16:21:22.570Z,4.15
2022-09-20T16:26:44.783Z,3.75
2022-09-20T16:32:06.578Z,4.13
2022-09-20T16:37:28.683Z,5.72
2022-09-20T16:42:52.463Z,5.45
2022-09-20T16:48:14.626Z,3.75
2022-09-20T16:53:36.731Z,7.40
2022-09-20T16:58:58.709Z,5.38
2022-09-20T17:04:21.228Z,6.57
2022-09-20T17:09:43.442Z,5.70
2022-09-20T17:15:06.069Z,3.70
2022-09-20T17:20:28.373Z,4.18
2022-09-20T17:26:01.945Z,5.05
2022-09-20T17:31:29.589Z,4.93
2022-09-20T17:36:52.578Z,6.70
2022-09-20T17:42:14.375Z,6.20
2022-09-20T17:47:36.331Z,5.57
2022-09-20T17:52:58.103Z,5.50
2022-09-20T17:58:19.907Z,4.40
2022-09-20T18:03:44.413Z,3.80
2022-09-20T18:09:10.721Z,3.20
2022-09-20T18:14:32.568Z,3.35
2022-09-20T18:19:54.399Z,4.03
2022-09-20T18:25:16.443Z,4.90
2022-09-20T18:30:38.446Z,6.25
2022-09-20T18:36:02.527Z,3.97
2022-09-20T18:41:27.091Z,4.57
2022-09-20T18:46:49.775Z,4.00
2022-09-20T18:52:11.873Z,5.03
2022-09-20T18:57:35.059Z,3.20
2022-09-20T19:03:11.686Z,3.83
2022-09-20T19:14:10.310Z,3.22
2022-09-20T19:19:53.735Z,10.25
2022-09-20T19:25:25.955Z,6.07
2022-09-20T19:30:47.959Z,4.88
2022-09-20T19:36:10.272Z,5.22
2022-09-20T19:42:04.673Z,7.57
2022-09-20T19:47:44.483Z,6.93
2022-09-20T19:53:06.933Z,6.68
2022-09-20T19:58:28.951Z,10.98
2022-09-20T20:03:52.221Z,5.95
2022-09-20T20:09:45.648Z,7.75
2022-09-20T20:15:39.151Z,11.75
2022-09-20T20:21:01.010Z,7.15
2022-09-20T20:26:26.410Z,7.60
2022-09-20T20:31:48.216Z,9.13
2022-09-20T20:37:10.172Z,6.95
2022-09-20T20:42:32.152Z,9.85
2022-09-20T20:47:57.854Z,7.10
2022-09-20T20:53:19.774Z,8.20
2022-09-20T20:58:43.179Z,7.63
2022-09-20T21:04:05.542Z,7.55
2022-09-20T21:09:27.347Z,8.23
2022-09-20T21:14:49.140Z,7.47
2022-09-20T21:20:10.928Z,9.40
2022-09-20T21:25:32.887Z,11.73
2022-09-20T21:31:00.472Z,10.45
2022-09-20T21:36:28.966Z,9.73
2022-09-20T21:41:50.796Z,8.48
2022-09-20T21:47:12.605Z,9.88
2022-09-20T21:52:34.382Z,7.13
2022-09-20T21:57:56.149Z,7.38
2022-09-20T22:03:17.956Z,7.05
2022-09-20T22:08:48.626Z,9.45
2022-09-20T22:14:11.764Z,8.77
2022-09-20T22:19:33.534Z,9.73
2022-09-20T22:24:55.323Z,10.23
2022-09-20T22:30:17.230Z,10.60
2022-09-20T22:35:44.487Z,10.95
2022-09-20T22:41:06.572Z,10.75
2022-09-20T22:46:29.962Z,8.98
2022-09-20T22:51:51.769Z,9.75
2022-09-20T22:57:13.694Z,9.95
2022-09-20T23:02:35.559Z,12.25
2022-09-20T23:07:57.326Z,10.93
2022-09-20T23:13:19.147Z,10.93
2022-09-20T23:18:41.834Z,8.80
2022-09-20T23:24:05.729Z,11.48
2022-09-20T23:29:27.762Z,10.10
2022-09-20T23:34:49.516Z,10.50
2022-09-20T23:40:11.506Z,12.93
2022-09-20T23:45:33.337Z,12.30
2022-09-20T23:50:55.374Z,11.50
2022-09-20T23:56:17.706Z,13.45
